Time;durP1;ratioP1;P1;durP2;ratioP2;P2;SDS_P1;SDS_P2;PMS_P1;PMS_P2;Temp;Humidity;BMP_temperature;BMP_pressure;BME280_temperature;BME280_humidity;BME280_pressure;Samples;Min_cycle;Max_cycle;Signal;HPM_P1;HPM_P2
2020/12/01 00:00:14;;;;;;;;;;;;;;;0.37;72.46;98703.73;1781157;78;25246;-84
2020/12/01 00:03:02;;;;;;;;;;;;;;;0.36;72.43;98700.74;1795842;78;20241;-84
2020/12/01 00:05:48;;;;;;;;;;;;;;;0.33;72.40;98704.66;1771675;79;27127;-85
2020/12/01 00:08:35;;;;;;;;;;;;;;;0.32;72.38;98705.57;1797323;78;24770;-85
2020/12/01 00:11:22;;;;;;;;;;;;;;;0.31;72.35;98703.03;1793178;78;20311;-84
2020/12/01 00:14:08;;;;;;;;;;;;;;;0.34;72.35;98705.51;1751731;81;25122;-84
2020/12/01 00:16:55;;;;;;;;;;;;;;;0.36;72.35;98707.62;1758191;81;22879;-86
2020/12/01 00:19:41;;;;;;;;;;;;;;;0.35;72.33;98704.20;1751625;80;26088;-85
2020/12/01 00:22:27;;;;;;;;;;;;;;;0.33;72.34;98696.94;1753413;81;24635;-85
2020/12/01 00:25:15;;;;;;;;;;;;;;;0.32;72.31;98698.29;1745069;81;20392;-85
2020/12/01 00:28:00;;;;;;;;;;;;;;;0.34;72.30;98697.34;1751174;80;25296;-85
2020/12/01 00:30:47;;;;;;;;;;;;;;;0.37;72.29;98699.02;1753810;80;22329;-85
2020/12/01 00:33:33;;;;;;;;;;;;;;;0.33;72.32;98702.09;1749926;80;26267;-85
2020/12/01 00:36:21;;;;;;;;;;;;;;;0.35;72.30;98705.92;1750860;80;24611;-85
2020/12/01 00:39:08;;;;;;;;;;;;;;;0.29;72.31;98700.92;1725024;80;34342;-85
2020/12/01 00:41:54;;;;;;;;;;;;;;;0.33;72.29;98698.23;1750809;80;25934;-85
2020/12/01 00:44:41;;;;;;;;;;;;;;;0.30;72.28;98696.18;1717166;82;22160;-85
2020/12/01 00:47:27;;;;;;;;;;;;;;;0.32;72.29;98697.00;1782183;79;26210;-85
2020/12/01 00:50:14;;;;;;;;;;;;;;;0.31;72.27;98700.45;1774541;79;25560;-85
2020/12/01 00:53:00;;;;;;;;;;;;;;;0.30;72.27;98695.74;1795207;79;20281;-85
2020/12/01 00:55:47;;;;;;;;;;;;;;;0.31;72.25;98694.02;1801992;79;25081;-85
2020/12/01 00:58:33;;;;;;;;;;;;;;;0.31;72.25;98692.73;1797100;79;22126;-85
2020/12/01 01:01:19;;;;;;;;;;;;;;;0.30;72.23;98684.16;1801165;79;26094;-85
2020/12/01 01:04:07;;;;;;;;;;;;;;;0.29;72.21;98689.34;1787627;79;25582;-85
2020/12/01 01:06:53;;;;;;;;;;;;;;;0.19;72.20;98684.86;1785474;79;20329;-84
2020/12/01 01:09:42;;;;;;;;;;;;;;;0.17;72.16;98676.77;1792003;78;26095;-85
2020/12/01 01:12:28;;;;;;;;;;;;;;;0.21;72.14;98679.25;1804765;79;22140;-84
2020/12/01 01:15:15;;;;;;;;;;;;;;;0.19;72.12;98668.58;1794402;79;26147;-84
2020/12/01 01:18:01;;;;;;;;;;;;;;;0.20;72.11;98667.27;1722910;82;24623;-84
2020/12/01 01:20:47;;;;;;;;;;;;;;;0.20;72.10;98667.70;1674580;84;20506;-85
2020/12/01 01:23:37;;;;;;;;;;;;;;;0.22;72.07;98661.61;1687300;84;24451;-85
2020/12/01 01:26:23;;;;;;;;;;;;;;;0.21;72.08;98661.23;1653925;85;23106;-85
2020/12/01 01:29:09;;;;;;;;;;;;;;;0.18;72.05;98665.59;1645206;85;26150;-85
2020/12/01 01:31:55;;;;;;;;;;;;;;;0.11;72.02;98652.03;1675356;84;25473;-85
2020/12/01 01:34:41;;;;;;;;;;;;;;;0.05;72.00;98651.36;1655910;85;20284;-85
2020/12/01 01:37:26;;;;;;;;;;;;;;;-0.02;71.96;98640.36;1659110;85;26197;-85
2020/12/01 01:40:14;;;;;;;;;;;;;;;-0.06;71.93;98639.61;1678757;85;22263;-85
2020/12/01 01:42:59;;;;;;;;;;;;;;;-0.06;71.91;98637.47;1676088;85;27212;-85
2020/12/01 01:45:45;;;;;;;;;;;;;;;-0.07;71.88;98630.63;1677144;85;24583;-85
2020/12/01 01:48:31;;;;;;;;;;;;;;;-0.05;71.88;98630.98;1655457;86;20677;-85
2020/12/01 01:51:06;;;;;;;;;;;;;;;-0.07;71.88;98628.06;1672922;85;25126;-85
2020/12/01 01:53:52;;;;;;;;;;;;;;;-0.06;71.87;98619.47;1731361;82;22172;-84
2020/12/01 01:56:38;;;;;;;;;;;;;;;-0.06;71.86;98622.03;1733030;82;26140;-84
2020/12/01 01:59:24;;;;;;;;;;;;;;;-0.08;71.85;98622.06;1727564;82;24836;-84
2020/12/01 02:02:10;;;;;;;;;;;;;;;-0.07;71.84;98629.34;1695808;82;20289;-84
2020/12/01 02:04:58;;;;;;;;;;;;;;;-0.13;71.81;98620.05;1732614;82;25265;-84
2020/12/01 02:07:43;;;;;;;;;;;;;;;-0.15;71.82;98629.52;1733008;82;22120;-84
2020/12/01 02:10:32;;;;;;;;;;;;;;;-0.16;71.78;98617.97;1729448;82;27090;-84
2020/12/01 02:13:17;;;;;;;;;;;;;;;-0.15;71.77;98619.23;1734539;82;24622;-84
2020/12/01 02:16:03;;;;;;;;;;;;;;;-0.14;71.78;98618.35;1718519;82;20259;-84
2020/12/01 02:18:52;;;;;;;;;;;;;;;-0.19;71.75;98621.48;1722558;82;25250;-84
2020/12/01 02:21:38;;;;;;;;;;;;;;;-0.20;71.75;98621.06;1691777;82;22137;-84
2020/12/01 02:24:27;;;;;;;;;;;;;;;-0.19;71.74;98620.63;1718977;82;27225;-84
2020/12/01 02:27:13;;;;;;;;;;;;;;;-0.21;71.71;98620.66;1709726;83;25500;-84
2020/12/01 02:30:08;;;;;;;;;;;;;;;-0.22;71.69;98628.43;1713788;82;20298;-85
2020/12/01 02:32:53;;;;;;;;;;;;;;;-0.24;71.68;98622.47;1711813;82;25110;-85
2020/12/01 02:35:41;;;;;;;;;;;;;;;-0.23;71.66;98616.02;1717578;82;21336;-85
2020/12/01 02:38:27;;;;;;;;;;;;;;;-0.25;71.63;98623.34;1718423;82;26131;-85
2020/12/01 02:41:14;;;;;;;;;;;;;;;-0.31;71.61;98614.48;1721318;82;25555;-85
2020/12/01 02:44:00;;;;;;;;;;;;;;;-0.35;71.58;98617.58;1719783;82;20548;-85
2020/12/01 02:46:45;;;;;;;;;;;;;;;-0.35;71.56;98613.72;1733277;82;25133;-84
2020/12/01 02:49:32;;;;;;;;;;;;;;;-0.35;71.55;98612.88;1715812;82;22109;-84
2020/12/01 02:52:20;;;;;;;;;;;;;;;-0.34;71.54;98604.28;1711223;83;26286;-84
2020/12/01 02:55:05;;;;;;;;;;;;;;;-0.37;71.52;98612.05;1706612;83;25525;-84
2020/12/01 02:57:53;;;;;;;;;;;;;;;-0.40;71.48;98610.41;1718754;82;20276;-84
2020/12/01 03:00:39;;;;;;;;;;;;;;;-0.44;71.44;98607.52;1720543;82;25161;-84
2020/12/01 03:03:25;;;;;;;;;;;;;;;-0.45;71.42;98608.39;1714774;82;22178;-84
2020/12/01 03:06:16;;;;;;;;;;;;;;;-0.44;71.42;98603.66;1713059;82;27197;-84
2020/12/01 03:09:02;;;;;;;;;;;;;;;-0.45;71.40;98594.25;1723931;82;24690;-84
2020/12/01 03:11:48;;;;;;;;;;;;;;;-0.45;71.41;98591.25;1713601;82;20812;-84
2020/12/01 03:14:35;;;;;;;;;;;;;;;-0.47;71.38;98584.00;1717401;82;25218;-84
2020/12/01 03:17:22;;;;;;;;;;;;;;;-0.51;71.36;98591.39;1722716;82;22112;-84
2020/12/01 03:20:09;;;;;;;;;;;;;;;-0.55;71.34;98580.78;1723712;81;26301;-84
2020/12/01 03:22:55;;;;;;;;;;;;;;;-0.53;71.33;98586.71;1721586;82;24664;-84
2020/12/01 03:25:41;;;;;;;;;;;;;;;-0.57;71.31;98588.95;1714405;82;20179;-85
2020/12/01 03:28:28;;;;;;;;;;;;;;;-0.59;71.29;98584.27;1720964;82;25906;-84
2020/12/01 03:31:15;;;;;;;;;;;;;;;-0.56;71.28;98585.51;1724271;82;22109;-84
2020/12/01 03:34:01;;;;;;;;;;;;;;;-0.55;71.25;98586.36;1720328;82;26159;-84
2020/12/01 03:36:46;;;;;;;;;;;;;;;-0.58;71.24;98585.13;1711816;82;24461;-84
2020/12/01 03:39:33;;;;;;;;;;;;;;;-0.60;71.20;98586.91;1721757;82;20540;-84
2020/12/01 03:42:19;;;;;;;;;;;;;;;-0.60;71.19;98582.58;1721909;82;25086;-84
2020/12/01 03:45:07;;;;;;;;;;;;;;;-0.64;71.17;98582.25;1719006;82;22211;-84
2020/12/01 03:47:53;;;;;;;;;;;;;;;-0.63;71.17;98582.67;1721897;82;27090;-84
2020/12/01 03:50:39;;;;;;;;;;;;;;;-0.63;71.16;98583.95;1717181;82;24676;-84
2020/12/01 03:53:25;;;;;;;;;;;;;;;-0.65;71.16;98578.42;1715929;82;20472;-84
2020/12/01 03:56:11;;;;;;;;;;;;;;;-0.66;71.15;98583.19;1724810;82;24917;-84
2020/12/01 03:58:58;;;;;;;;;;;;;;;-0.64;71.14;98578.40;1727582;82;22165;-84
2020/12/01 04:01:49;;;;;;;;;;;;;;;-0.62;71.13;98578.38;1716288;82;26134;-84
2020/12/01 04:04:35;;;;;;;;;;;;;;;-0.62;71.12;98562.52;1719063;82;23951;-84
2020/12/01 04:07:21;;;;;;;;;;;;;;;-0.62;71.11;98567.66;1705902;82;21324;-84
2020/12/01 04:10:06;;;;;;;;;;;;;;;-0.60;71.09;98562.49;1719846;82;25907;-84
2020/12/01 04:12:56;;;;;;;;;;;;;;;-0.59;71.08;98561.14;1725073;82;22044;-84
2020/12/01 04:15:42;;;;;;;;;;;;;;;-0.62;71.08;98560.38;1699572;82;26117;-84
2020/12/01 04:18:29;;;;;;;;;;;;;;;-0.68;71.05;98567.80;1695386;83;24673;-84
2020/12/01 04:21:15;;;;;;;;;;;;;;;-0.71;71.03;98562.70;1724885;81;20280;-84
2020/12/01 04:24:04;;;;;;;;;;;;;;;-0.70;71.00;98560.98;1716884;82;25135;-84
2020/12/01 04:26:49;;;;;;;;;;;;;;;-0.73;70.96;98558.50;1723857;82;22989;-84
2020/12/01 04:29:40;;;;;;;;;;;;;;;-0.72;70.95;98552.48;1722881;82;27034;-84
2020/12/01 04:32:27;;;;;;;;;;;;;;;-0.75;70.95;98546.12;1719441;82;25565;-84
2020/12/01 04:35:13;;;;;;;;;;;;;;;-0.78;70.93;98535.48;1707529;82;20514;-84
2020/12/01 04:38:04;;;;;;;;;;;;;;;-0.77;70.91;98529.47;1715644;82;25118;-84
2020/12/01 04:40:48;;;;;;;;;;;;;;;-0.79;70.92;98525.23;1721574;82;22284;-85
2020/12/01 04:43:36;;;;;;;;;;;;;;;-0.83;70.88;98528.33;1710150;82;26983;-84
2020/12/01 04:46:22;;;;;;;;;;;;;;;-0.83;70.87;98527.05;1717617;82;24618;-84
2020/12/01 04:49:10;;;;;;;;;;;;;;;-0.83;70.87;98519.77;1726425;82;20298;-85
2020/12/01 04:51:56;;;;;;;;;;;;;;;-0.82;70.87;98524.89;1720477;82;25243;-84
2020/12/01 04:54:30;;;;;;;;;;;;;;;-0.84;70.85;98517.64;1710563;82;22842;-85
2020/12/01 04:57:18;;;;;;;;;;;;;;;-0.82;70.83;98520.19;1708422;83;27139;-84
2020/12/01 05:00:05;;;;;;;;;;;;;;;-0.85;70.84;98526.22;1727844;82;24587;-84
2020/12/01 05:02:56;;;;;;;;;;;;;;;-0.84;70.84;98515.08;1720285;82;20389;-84
2020/12/01 05:05:51;;;;;;;;;;;;;;;-0.83;70.83;98519.34;1714992;82;25168;-84
2020/12/01 05:08:32;;;;;;;;;;;;;;;-0.83;70.83;98509.06;1719445;82;22124;-84
2020/12/01 05:11:18;;;;;;;;;;;;;;;-0.85;70.83;98512.09;1717780;82;26206;-84
2020/12/01 05:14:06;;;;;;;;;;;;;;;-0.81;70.83;98507.72;1716675;82;25462;-84
2020/12/01 05:16:52;;;;;;;;;;;;;;;-0.85;70.82;98511.66;1711701;82;20273;-84
2020/12/01 05:19:40;;;;;;;;;;;;;;;-0.83;70.83;98515.92;1728495;82;25614;-84
2020/12/01 05:22:26;;;;;;;;;;;;;;;-0.82;70.80;98513.77;1727487;82;22319;-84
2020/12/01 05:25:13;;;;;;;;;;;;;;;-0.81;70.77;98509.84;1720019;82;27045;-84
2020/12/01 05:27:59;;;;;;;;;;;;;;;-0.79;70.77;98505.53;1727964;82;24740;-84
2020/12/01 05:30:46;;;;;;;;;;;;;;;-0.76;70.77;98509.30;1721201;82;20337;-84
2020/12/01 05:33:32;;;;;;;;;;;;;;;-0.73;70.77;98503.27;1723130;82;25142;-83
2020/12/01 05:36:21;;;;;;;;;;;;;;;-0.71;70.77;98498.94;1684866;84;22246;-84
2020/12/01 05:39:07;;;;;;;;;;;;;;;-0.72;70.76;98499.81;1681029;84;26306;-84
2020/12/01 05:41:54;;;;;;;;;;;;;;;-0.76;70.76;98505.45;1688532;83;24888;-84
2020/12/01 05:44:40;;;;;;;;;;;;;;;-0.76;70.72;98502.88;1682110;84;20293;-83
2020/12/01 05:47:28;;;;;;;;;;;;;;;-0.77;70.70;98502.50;1669882;85;25195;-83
2020/12/01 05:50:14;;;;;;;;;;;;;;;-0.76;70.69;98505.91;1685162;84;23010;-84
2020/12/01 05:53:00;;;;;;;;;;;;;;;-0.77;70.68;98503.78;1686412;83;27062;-84
2020/12/01 05:55:46;;;;;;;;;;;;;;;-0.80;70.66;98506.41;1686812;84;25366;-84
2020/12/01 05:58:20;;;;;;;;;;;;;;;-0.80;70.66;98499.98;1677787;84;20273;-83
2020/12/01 06:01:08;;;;;;;;;;;;;;;-0.78;70.67;98513.65;1652010;86;25294;-84
2020/12/01 06:03:55;;;;;;;;;;;;;;;-0.77;70.66;98513.21;1655478;84;23316;-84
2020/12/01 06:06:47;;;;;;;;;;;;;;;-0.78;70.66;98510.23;1681384;85;26141;-84
2020/12/01 06:09:33;;;;;;;;;;;;;;;-0.78;70.61;98503.38;1679018;84;24616;-83
2020/12/01 06:12:19;;;;;;;;;;;;;;;-0.77;70.60;98501.66;1690154;84;20210;-84
2020/12/01 06:15:06;;;;;;;;;;;;;;;-0.77;70.60;98504.22;1735756;82;25129;-84
2020/12/01 06:17:52;;;;;;;;;;;;;;;-0.78;70.57;98498.67;1723783;81;21485;-84
2020/12/01 06:20:38;;;;;;;;;;;;;;;-0.74;70.56;98506.70;1728220;81;26159;-84
2020/12/01 06:23:25;;;;;;;;;;;;;;;-0.75;70.59;98490.44;1710897;82;24693;-84
2020/12/01 06:26:11;;;;;;;;;;;;;;;-0.76;70.56;98505.45;1714924;82;20468;-83
2020/12/01 06:28:58;;;;;;;;;;;;;;;-0.78;70.55;98491.81;1722909;82;25133;-83
2020/12/01 06:31:45;;;;;;;;;;;;;;;-0.78;70.52;98503.81;1712914;82;22130;-83
2020/12/01 06:34:37;;;;;;;;;;;;;;;-0.76;70.52;98503.34;1708749;82;27173;-84
2020/12/01 06:37:24;;;;;;;;;;;;;;;-0.77;70.51;98505.06;1702478;82;24701;-83
2020/12/01 06:39:58;;;;;;;;;;;;;;;-0.79;70.49;98491.41;1708745;82;20340;-84
2020/12/01 06:42:45;;;;;;;;;;;;;;;-0.83;70.47;98502.64;1720743;81;25118;-84
2020/12/01 06:45:31;;;;;;;;;;;;;;;-0.81;70.45;98507.28;1679595;84;22162;-83
2020/12/01 06:48:18;;;;;;;;;;;;;;;-0.80;70.44;98504.27;1678762;85;26137;-84
2020/12/01 06:51:03;;;;;;;;;;;;;;;-0.80;70.44;98507.69;1648340;86;24960;-84
2020/12/01 06:53:50;;;;;;;;;;;;;;;-0.79;70.43;98500.83;1680020;85;20288;-84
2020/12/01 06:56:35;;;;;;;;;;;;;;;-0.80;70.40;98502.55;1688247;83;25175;-83
2020/12/01 06:59:23;;;;;;;;;;;;;;;-0.77;70.40;98504.22;1688536;84;22144;-83
2020/12/01 07:02:09;;;;;;;;;;;;;;;-0.74;70.38;98497.27;1692333;83;26159;-83
2020/12/01 07:04:58;;;;;;;;;;;;;;;-0.74;70.35;98479.29;1681895;83;24685;-83
2020/12/01 07:07:44;;;;;;;;;;;;;;;-0.73;70.34;98483.98;1688372;83;20372;-83
2020/12/01 07:10:30;;;;;;;;;;;;;;;-0.74;70.32;98483.14;1685944;83;25869;-83
2020/12/01 07:13:16;;;;;;;;;;;;;;;-0.74;70.31;98487.00;1682474;83;22150;-84
2020/12/01 07:16:02;;;;;;;;;;;;;;;-0.70;70.31;98496.31;1684336;83;26135;-83
2020/12/01 07:18:48;;;;;;;;;;;;;;;-0.68;70.29;98499.70;1684185;83;24695;-83
2020/12/01 07:21:34;;;;;;;;;;;;;;;-0.67;70.27;98494.97;1678668;83;20267;-83
2020/12/01 07:24:22;;;;;;;;;;;;;;;-0.66;70.27;98496.66;1687023;83;25955;-83
2020/12/01 07:27:08;;;;;;;;;;;;;;;-0.64;70.25;98509.02;1682886;83;22985;-84
2020/12/01 07:29:45;;;;;;;;;;;;;;;-0.62;70.22;98504.70;1682783;83;26159;-85
2020/12/01 08:13:51;;;;;;;;;;;;;;;-0.25;69.87;98517.91;1728439;81;20727;-83
2020/12/01 08:16:56;;;;;;;;;;;;;;;-0.20;69.84;98516.91;1723370;82;24083;-83
2020/12/01 08:19:44;;;;;;;;;;;;;;;-0.16;69.83;98530.53;1740266;81;24567;-84
2020/12/01 08:22:34;;;;;;;;;;;;;;;-0.13;69.84;98524.04;1739854;80;20259;-84
2020/12/01 08:25:21;;;;;;;;;;;;;;;-0.08;69.80;98521.75;1792494;79;25352;-84
2020/12/01 08:28:07;;;;;;;;;;;;;;;-0.03;69.79;98522.91;1792287;80;22102;-84
2020/12/01 08:30:52;;;;;;;;;;;;;;;0.02;69.73;98528.78;1774849;80;26112;-83
2020/12/01 08:33:38;;;;;;;;;;;;;;;0.05;69.70;98528.72;1774512;80;25704;-83
2020/12/01 08:36:28;;;;;;;;;;;;;;;0.10;69.69;98533.73;1776027;80;20296;-84
2020/12/01 08:39:17;;;;;;;;;;;;;;;0.10;69.66;98534.58;1773204;80;25325;-84
2020/12/01 08:42:06;;;;;;;;;;;;;;;0.16;69.62;98541.30;1772035;80;22996;-84
2020/12/01 08:44:52;;;;;;;;;;;;;;;0.20;69.60;98538.59;1770552;80;26093;-85
2020/12/01 08:47:38;;;;;;;;;;;;;;;0.22;69.56;98532.95;1777068;80;24784;-84
2020/12/01 08:50:24;;;;;;;;;;;;;;;0.25;69.52;98535.89;1786205;80;20277;-84
2020/12/01 08:53:10;;;;;;;;;;;;;;;0.28;69.49;98540.50;1779601;80;25117;-84
2020/12/01 08:55:58;;;;;;;;;;;;;;;0.34;69.44;98539.49;1775697;80;22245;-83
2020/12/01 08:58:31;;;;;;;;;;;;;;;0.37;69.40;98540.27;1777100;80;26213;-84
2020/12/01 09:01:17;;;;;;;;;;;;;;;0.43;69.38;98534.55;1776700;80;24610;-83
2020/12/01 09:04:05;;;;;;;;;;;;;;;0.47;69.37;98533.58;1781636;80;20301;-84
2020/12/01 09:06:52;;;;;;;;;;;;;;;0.55;69.35;98541.91;1773631;80;25187;-84
2020/12/01 09:09:40;;;;;;;;;;;;;;;0.54;69.31;98542.83;1790129;79;21689;-84
2020/12/01 09:12:34;;;;;;;;;;;;;;;0.56;69.26;98547.03;1764327;80;26172;-84
2020/12/01 09:15:26;;;;;;;;;;;;;;;0.64;69.23;98539.09;1780595;80;24631;-84
2020/12/01 09:18:30;;;;;;;;;;;;;;;0.71;69.21;98536.76;1770176;79;20571;-84
2020/12/01 09:24:11;;;;;;;;;;;;;;;0.81;69.17;98545.46;1787442;80;22973;-84
2020/12/01 09:26:57;;;;;;;;;;;;;;;0.88;69.15;98543.97;1757879;79;26122;-84
2020/12/01 09:29:43;;;;;;;;;;;;;;;0.90;69.12;98543.05;1777210;80;24456;-83
2020/12/01 09:32:29;;;;;;;;;;;;;;;0.90;69.08;98549.48;1774787;80;20603;-84
2020/12/01 09:35:15;;;;;;;;;;;;;;;0.95;69.00;98551.92;1777589;80;25980;-84
2020/12/01 09:38:01;;;;;;;;;;;;;;;0.96;68.96;98548.46;1760912;80;22142;-84
2020/12/01 09:40:50;;;;;;;;;;;;;;;0.96;68.92;98540.30;1765910;79;27059;-84
2020/12/01 09:43:40;;;;;;;;;;;;;;;1.03;68.90;98537.09;1767949;80;24589;-84
2020/12/01 09:46:30;;;;;;;;;;;;;;;1.07;68.85;98532.23;1770448;80;20274;-84
2020/12/01 09:49:12;;;;;;;;;;;;;;;1.10;68.83;98534.71;1763430;80;25944;-84
2020/12/01 09:52:06;;;;;;;;;;;;;;;1.13;68.80;98534.63;1776294;80;22099;-84
2020/12/01 09:54:52;;;;;;;;;;;;;;;1.15;68.77;98525.10;1791743;79;26194;-83
2020/12/01 09:57:49;;;;;;;;;;;;;;;1.18;68.71;98530.18;1770847;80;24572;-84
2020/12/01 10:00:54;;;;;;;;;;;;;;;1.19;68.65;98523.70;1778742;80;20270;-84
2020/12/01 10:09:57;;;;;;;;;;;;;;;1.31;68.50;98516.48;1781268;80;27047;-84
2020/12/01 10:12:46;;;;;;;;;;;;;;;1.35;68.47;98512.90;1768328;80;24605;-84
2020/12/01 10:19:02;;;;;;;;;;;;;;;1.41;68.38;98501.11;1783106;80;26102;-84
2020/12/01 10:22:50;;;;;;;;;;;;;;;1.46;68.32;98497.94;1768052;80;22071;-84
2020/12/01 10:25:34;;;;;;;;;;;;;;;1.48;68.25;98500.00;1767507;79;26350;-83
2020/12/01 10:34:27;;;;;;;;;;;;;;;1.57;68.16;98486.38;1780282;80;25170;-83
2020/12/01 10:37:10;;;;;;;;;;;;;;;1.63;68.13;98498.23;1775025;80;22335;-84
2020/12/01 10:39:56;;;;;;;;;;;;;;;1.64;68.10;98499.89;1788285;80;26095;-84
2020/12/01 10:42:42;;;;;;;;;;;;;;;1.66;68.04;98497.67;1791586;79;24629;-83
2020/12/01 10:45:28;;;;;;;;;;;;;;;1.66;67.99;98498.11;1788701;79;20290;-83
2020/12/01 10:48:17;;;;;;;;;;;;;;;1.72;67.96;98503.08;1799377;79;26016;-83
2020/12/01 10:51:03;;;;;;;;;;;;;;;1.77;67.92;98505.05;1797685;79;22152;-83
2020/12/01 10:53:49;;;;;;;;;;;;;;;1.80;67.89;98501.06;1804043;79;26125;-83
2020/12/01 10:56:35;;;;;;;;;;;;;;;1.86;67.85;98502.59;1810731;79;24806;-83
2020/12/01 10:59:24;;;;;;;;;;;;;;;1.91;67.84;98502.83;1802603;79;20290;-83
2020/12/01 11:02:10;;;;;;;;;;;;;;;1.92;67.81;98502.39;1768686;79;26107;-83
2020/12/01 11:04:57;;;;;;;;;;;;;;;1.93;67.75;98501.50;1787207;79;22125;-84
2020/12/01 11:07:43;;;;;;;;;;;;;;;1.95;67.68;98507.47;1788102;79;26133;-83
2020/12/01 11:10:29;;;;;;;;;;;;;;;2.00;67.64;98506.86;1789750;79;25482;-84
2020/12/01 11:13:15;;;;;;;;;;;;;;;2.06;67.63;98506.20;1786786;79;20559;-84
2020/12/01 11:16:01;;;;;;;;;;;;;;;2.07;67.60;98498.02;1788457;79;25196;-84
2020/12/01 11:18:49;;;;;;;;;;;;;;;2.10;67.56;98506.48;1792986;79;23314;-85
2020/12/01 11:21:35;;;;;;;;;;;;;;;2.13;67.52;98506.00;1795194;79;26311;-84
2020/12/01 11:24:22;;;;;;;;;;;;;;;2.15;67.47;98508.05;1786733;79;24891;-84
2020/12/01 11:27:08;;;;;;;;;;;;;;;2.19;67.44;98504.46;1791687;79;20264;-84
2020/12/01 11:29:55;;;;;;;;;;;;;;;2.23;67.42;98503.48;1793042;79;25945;-84
2020/12/01 11:32:42;;;;;;;;;;;;;;;2.23;67.37;98503.48;1780404;79;22103;-85
2020/12/01 11:35:29;;;;;;;;;;;;;;;2.29;67.36;98503.27;1774075;79;26077;-84
2020/12/01 11:38:16;;;;;;;;;;;;;;;2.25;67.31;98499.93;1789288;79;24811;-85
2020/12/01 11:41:02;;;;;;;;;;;;;;;2.26;67.26;98497.75;1789457;79;20268;-84
2020/12/01 11:43:47;;;;;;;;;;;;;;;2.28;67.23;98495.12;1793474;79;24524;-84
2020/12/01 11:46:34;;;;;;;;;;;;;;;2.27;67.19;98494.72;1783813;79;22076;-84
2020/12/01 11:49:20;;;;;;;;;;;;;;;2.34;67.16;98497.05;1794645;79;26132;-84
2020/12/01 11:52:07;;;;;;;;;;;;;;;2.41;67.11;98497.64;1791326;79;25734;-84
2020/12/01 11:54:53;;;;;;;;;;;;;;;2.45;67.09;98497.50;1784969;79;20319;-84
2020/12/01 11:57:39;;;;;;;;;;;;;;;2.50;67.04;98497.33;1785812;79;25330;-84
2020/12/01 12:00:25;;;;;;;;;;;;;;;2.45;67.01;98494.07;1797078;79;22061;-84
2020/12/01 12:03:13;;;;;;;;;;;;;;;2.44;66.95;98494.97;1802295;79;26293;-84
2020/12/01 12:05:58;;;;;;;;;;;;;;;2.43;66.89;98494.56;1786438;79;24861;-85
2020/12/01 12:08:44;;;;;;;;;;;;;;;2.49;66.85;98487.89;1784869;79;20170;-84
2020/12/01 12:11:30;;;;;;;;;;;;;;;2.53;66.80;98484.29;1792628;79;25239;-84
2020/12/01 12:14:16;;;;;;;;;;;;;;;2.54;66.76;98475.64;1782023;79;22065;-84
2020/12/01 12:17:04;;;;;;;;;;;;;;;2.52;66.71;98477.43;1788020;79;26118;-84
2020/12/01 12:19:50;;;;;;;;;;;;;;;2.52;66.69;98479.56;1797448;79;24618;-84
2020/12/01 12:22:36;;;;;;;;;;;;;;;2.52;66.64;98483.44;1786324;79;20340;-84
2020/12/01 12:25:25;;;;;;;;;;;;;;;2.58;66.60;98490.57;1770369;79;25200;-84
2020/12/01 12:28:11;;;;;;;;;;;;;;;2.55;66.60;98477.34;1774868;79;22368;-84
2020/12/01 12:31:01;;;;;;;;;;;;;;;2.53;66.53;98480.41;1793850;79;25558;-85
2020/12/01 12:33:45;;;;;;;;;;;;;;;2.53;66.50;98480.41;1785506;78;24833;-84
2020/12/01 12:36:32;;;;;;;;;;;;;;;2.52;66.46;98481.30;1794057;79;20513;-85
2020/12/01 12:39:17;;;;;;;;;;;;;;;2.53;66.41;98482.99;1790440;79;25176;-84
2020/12/01 12:42:04;;;;;;;;;;;;;;;2.51;66.35;98481.75;1788733;79;22168;-84
2020/12/01 12:44:50;;;;;;;;;;;;;;;2.46;66.29;98481.53;1784165;79;26089;-84
2020/12/01 12:47:36;;;;;;;;;;;;;;;2.46;66.25;98479.79;1791118;79;24580;-84
2020/12/01 12:50:22;;;;;;;;;;;;;;;2.44;66.19;98480.76;1790674;79;20330;-84
2020/12/01 12:53:08;;;;;;;;;;;;;;;2.40;66.13;98480.48;1792095;79;25080;-85
2020/12/01 12:55:53;;;;;;;;;;;;;;;2.38;66.08;98479.69;1785938;79;22195;-85
2020/12/01 12:58:39;;;;;;;;;;;;;;;2.38;66.05;98481.83;1794753;79;26968;-86
2020/12/01 13:01:26;;;;;;;;;;;;;;;2.33;66.01;98482.89;1785773;79;24606;-86
2020/12/01 13:04:12;;;;;;;;;;;;;;;2.30;65.95;98482.53;1798767;79;20449;-86
2020/12/01 13:06:58;;;;;;;;;;;;;;;2.28;65.90;98486.09;1788911;79;25135;-87
2020/12/01 13:09:45;;;;;;;;;;;;;;;2.30;65.88;98486.85;1774095;79;21938;-87
2020/12/01 13:12:30;;;;;;;;;;;;;;;2.32;65.84;98483.33;1798528;79;26071;-86
2020/12/01 13:15:17;;;;;;;;;;;;;;;2.33;65.83;98488.89;1778990;79;24500;-86
2020/12/01 13:18:03;;;;;;;;;;;;;;;2.28;65.80;98497.70;1787317;79;20325;-86
2020/12/01 13:23:47;;;;;;;;;;;;;;;2.27;65.76;98507.19;1694254;84;23044;-85
2020/12/01 13:26:33;;;;;;;;;;;;;;;2.27;65.71;98504.61;1686114;84;26127;-85
2020/12/01 13:29:19;;;;;;;;;;;;;;;2.31;65.72;98504.88;1695850;84;24949;-86
2020/12/01 13:32:04;;;;;;;;;;;;;;;2.27;65.70;98502.02;1702071;84;20286;-86
2020/12/01 13:34:52;;;;;;;;;;;;;;;2.28;65.68;98502.42;1692590;84;25213;-85
2020/12/01 13:37:43;;;;;;;;;;;;;;;2.26;65.65;98512.39;1702362;84;22226;-85
2020/12/01 13:40:28;;;;;;;;;;;;;;;2.25;65.61;98519.74;1694503;84;26115;-85
2020/12/01 13:43:16;;;;;;;;;;;;;;;2.25;65.60;98517.16;1692425;84;24887;-85
2020/12/01 13:46:02;;;;;;;;;;;;;;;2.24;65.59;98520.63;1693995;83;20286;-85
2020/12/01 13:48:48;;;;;;;;;;;;;;;2.18;65.58;98513.98;1693310;84;25346;-85
2020/12/01 13:51:34;;;;;;;;;;;;;;;2.14;65.58;98512.81;1690559;84;22153;-85
2020/12/01 13:54:20;;;;;;;;;;;;;;;2.09;65.54;98516.86;1688842;84;26133;-85
2020/12/01 13:57:06;;;;;;;;;;;;;;;2.03;65.51;98515.77;1684825;84;24619;-86
2020/12/01 13:59:52;;;;;;;;;;;;;;;2.02;65.47;98523.11;1685880;84;20213;-85
2020/12/01 14:02:38;;;;;;;;;;;;;;;1.99;65.45;98522.78;1692187;84;25282;-86
2020/12/01 14:05:25;;;;;;;;;;;;;;;2.00;65.41;98521.90;1688761;84;21321;-85
2020/12/01 14:08:10;;;;;;;;;;;;;;;2.03;65.40;98523.06;1688060;84;26354;-86
2020/12/01 14:10:57;;;;;;;;;;;;;;;2.07;65.40;98531.57;1692733;84;24809;-86
2020/12/01 14:13:43;;;;;;;;;;;;;;;2.03;65.37;98529.97;1690487;84;20345;-86
2020/12/01 14:16:29;;;;;;;;;;;;;;;1.97;65.37;98527.14;1690681;84;25975;-86
2020/12/01 14:19:14;;;;;;;;;;;;;;;1.93;65.36;98531.17;1692178;84;22236;-86
2020/12/01 14:22:04;;;;;;;;;;;;;;;1.98;65.35;98538.31;1690935;83;26139;-84
2020/12/01 14:24:50;;;;;;;;;;;;;;;1.99;65.33;98536.13;1691687;84;24845;-86
2020/12/01 14:27:35;;;;;;;;;;;;;;;1.91;65.32;98537.67;1690538;84;20566;-85
2020/12/01 14:30:22;;;;;;;;;;;;;;;1.81;65.31;98538.03;1690875;84;25416;-86
2020/12/01 14:33:09;;;;;;;;;;;;;;;1.73;65.27;98538.30;1692587;84;22145;-86
2020/12/01 14:35:55;;;;;;;;;;;;;;;1.60;65.20;98536.56;1689142;84;26096;-86
2020/12/01 14:38:41;;;;;;;;;;;;;;;1.59;65.18;98540.47;1692311;84;25641;-86
2020/12/01 14:41:27;;;;;;;;;;;;;;;1.55;65.14;98541.47;1687017;84;20263;-86
2020/12/01 14:44:15;;;;;;;;;;;;;;;1.47;65.11;98542.17;1688197;84;25307;-85
2020/12/01 14:47:03;;;;;;;;;;;;;;;1.45;65.09;98545.23;1689923;84;22148;-85
2020/12/01 14:49:49;;;;;;;;;;;;;;;1.38;65.06;98542.44;1672400;84;26571;-86
2020/12/01 14:52:35;;;;;;;;;;;;;;;1.33;65.04;98545.16;1692523;84;24790;-85
2020/12/01 14:55:21;;;;;;;;;;;;;;;1.34;65.05;98549.88;1689004;83;20393;-85
2020/12/01 14:58:07;;;;;;;;;;;;;;;1.33;65.04;98552.05;1695090;84;25494;-85
2020/12/01 15:00:53;;;;;;;;;;;;;;;1.28;65.04;98552.64;1689152;84;23107;-84
2020/12/01 15:03:44;;;;;;;;;;;;;;;1.16;65.04;98555.98;1690822;83;27096;-84
2020/12/01 15:06:32;;;;;;;;;;;;;;;1.08;65.01;98563.13;1691659;83;24699;-84
2020/12/01 15:09:20;;;;;;;;;;;;;;;1.13;65.00;98560.41;1691232;84;20318;-84
2020/12/01 15:12:06;;;;;;;;;;;;;;;1.14;65.01;98566.81;1687883;84;26046;-84
2020/12/01 15:14:52;;;;;;;;;;;;;;;1.08;65.01;98559.26;1690650;84;22181;-84
2020/12/01 15:17:38;;;;;;;;;;;;;;;1.05;65.00;98567.50;1690261;84;26186;-84
2020/12/01 15:20:26;;;;;;;;;;;;;;;1.06;64.98;98574.35;1689042;84;24783;-84
2020/12/01 15:23:15;;;;;;;;;;;;;;;1.10;65.00;98578.52;1692450;83;20287;-84
2020/12/01 15:26:03;;;;;;;;;;;;;;;1.12;64.98;98577.59;1686889;84;25137;-85
2020/12/01 15:28:49;;;;;;;;;;;;;;;1.09;64.99;98579.44;1687410;84;22176;-85
2020/12/01 15:31:36;;;;;;;;;;;;;;;1.01;64.98;98578.36;1688621;84;26382;-85
2020/12/01 15:34:23;;;;;;;;;;;;;;;0.99;64.99;98578.84;1689478;83;25573;-85
2020/12/01 15:37:09;;;;;;;;;;;;;;;0.97;64.97;98579.34;1686084;84;20648;-85